| time (UTC) | temp F | wind direction | speed MPH | gust MPH | rain 1hr in | rain 24hr in | rain mn in | humidity % | barometer mb |
| 20260505023017 | 40 | 0.0 | 0.0 | 0.00 | 0.16 | 0.16 | 93 | 1013.9 | |
| 20260505022517 | 40 | 0.0 | 0.0 | 0.00 | 0.16 | 0.16 | 93 | 1012.7 | |
| 20260505022017 | 40 | 0.0 | 0.0 | 0.00 | 0.16 | 0.16 | 93 | 1012.5 | |
| 20260505021517 | 40 | 0.0 | 0.0 | 0.01 | 0.16 | 0.16 | 92 | 1012.2 | |
| 20260505021017 | 40 | 0.0 | 0.0 | 0.01 | 0.16 | 0.16 | 92 | 1012.0 | |
| 20260505020517 | 40 | 0.0 | 1.0 | 0.01 | 0.16 | 0.16 | 92 | 1011.8 | |
| 20260505020017 | 40 | 0.0 | 0.0 | 0.01 | 0.16 | 0.16 | 92 | 1011.7 | |
| 20260505015517 | 40 | 0.0 | 1.0 | 0.01 | 0.16 | 0.16 | 92 | 1011.9 | |
| 20260505015017 | 40 | 0.0 | 1.0 | 0.01 | 0.16 | 0.16 | 92 | 1011.9 | |
| 20260505014517 | 41 | 0.0 | 1.0 | 0.01 | 0.16 | 0.16 | 92 | 1011.7 | |
| 20260505014017 | 41 | 0.0 | 0.0 | 0.01 | 0.16 | 0.16 | 92 | 1011.8 | |
| 20260505013517 | 41 | 0.0 | 0.0 | 0.01 | 0.16 | 0.16 | 92 | 1011.5 | |
| 20260505013017 | 41 | 0.0 | 1.0 | 0.01 | 0.16 | 0.16 | 92 | 1011.4 | |
| 20260505012517 | 41 | 0.0 | 0.0 | 0.01 | 0.16 | 0.16 | 92 | 1011.5 | |
| 20260505012017 | 41 | 0.0 | 0.0 | 0.01 | 0.16 | 0.16 | 92 | 1011.8 | |
| 20260505011517 | 41 | 0.0 | 0.0 | 0.00 | 0.15 | 0.15 | 91 | 1011.9 | |
| 20260505011017 | 41 | 0.0 | 0.0 | 0.00 | 0.15 | 0.15 | 91 | 1011.9 | |
| 20260505010517 | 41 | 0.0 | 0.0 | 0.01 | 0.15 | 0.15 | 90 | 1011.8 | |
| 20260505010017 | 41 | 0.0 | 0.0 | 0.01 | 0.15 | 0.15 | 90 | 1011.7 | |
| 20260505005517 | 41 | 0.0 | 0.0 | 0.03 | 0.15 | 0.15 | 90 | 1010.4 | |
| 20260505005017 | 41 | 0.0 | 0.0 | 0.04 | 0.15 | 0.15 | 90 | 1010.4 | |
| 20260505004517 | 41 | 0.0 | 0.0 | 0.05 | 0.15 | 0.15 | 89 | 1010.4 | |
| 20260505004017 | 41 | 0.0 | 2.0 | 0.05 | 0.15 | 0.15 | 89 | 1010.6 | |
| 20260505003516 | 41 | 0.0 | 1.0 | 0.05 | 0.15 | 0.15 | 91 | 1010.6 | |
| 20260505003017 | 41 | 0.0 | 0.0 | 0.06 | 0.15 | 0.15 | 91 | 1010.5 | |
| 20260505002517 | 41 | 0.0 | 1.0 | 0.07 | 0.15 | 0.15 | 91 | 1011.3 | |
| 20260505002017 | 41 | 0.0 | 2.0 | 0.08 | 0.15 | 0.15 | 91 | 1011.2 | |
| 20260505001516 | 40 | 0.0 | 1.0 | 0.08 | 0.15 | 0.15 | 91 | 1011.6 | |
| 20260505001017 | 41 | 0.0 | 1.0 | 0.08 | 0.15 | 0.15 | 90 | 1011.7 | |
| 20260505000516 | 41 | 0.0 | 1.0 | 0.08 | 0.14 | 0.14 | 89 | 1012.0 | |
| 20260505000017 | 41 | 0.0 | 0.0 | 0.08 | 0.14 | 0.14 | 89 | 1012.0 | |
| 20260504235517 | 41 | 0.0 | 1.0 | 0.09 | 0.12 | 0.12 | 88 | 1011.9 | |
| 20260504235016 | 41 | 0.0 | 1.0 | 0.08 | 0.11 | 0.11 | 89 | 1012.0 | |
| 20260504234517 | 42 | 0.0 | 1.0 | 0.07 | 0.10 | 0.10 | 89 | 1012.3 | |
| 20260504234016 | 42 | 0.0 | 0.0 | 0.07 | 0.10 | 0.10 | 89 | 1012.1 | |
| 20260504233516 | 42 | 0.0 | 0.0 | 0.08 | 0.10 | 0.10 | 89 | 1011.8 | |
| 20260504233017 | 42 | 0.0 | 0.0 | 0.08 | 0.09 | 0.09 | 89 | 1011.8 | |
| 20260504232517 | 42 | 0.0 | 1.0 | 0.07 | 0.08 | 0.08 | 88 | 1011.6 | |
| 20260504232016 | 42 | 0.0 | 1.0 | 0.06 | 0.07 | 0.07 | 87 | 1011.4 | |
| 20260504231517 | 42 | 0.0 | 0.0 | 0.07 | 0.07 | 0.07 | 85 | 1011.1 | |
| 20260504231016 | 43 | 0.0 | 0.0 | 0.07 | 0.07 | 0.07 | 83 | 1011.2 | |
| 20260504230516 | 43 | 0.0 | 1.0 | 0.06 | 0.06 | 0.06 | 80 | 1011.0 | |
| 20260504230017 | 43 | 0.0 | 0.0 | 0.06 | 0.06 | 0.06 | 75 | 1010.9 | |
| 20260504225517 | 44 | 0.0 | 1.0 | 0.03 | 0.03 | 0.03 | 72 | 1010.8 | |
| 20260504225017 | 44 | 0.0 | 3.0 | 0.03 | 0.03 | 0.03 | 69 | 1010.7 | |
| 20260504224516 | 45 | 23 | 1.0 | 3.0 | 0.03 | 0.03 | 0.03 | 66 | 1011.0 |
| 20260504224017 | 46 | 135 | 2.0 | 8.0 | 0.03 | 0.03 | 0.03 | 61 | 1010.9 |
| 20260504223518 | 47 | 135 | 2.0 | 13.0 | 0.02 | 0.02 | 0.02 | 57 | 1011.4 |
| 20260504223017 | 48 | 0.0 | 2.0 | 0.01 | 0.01 | 0.01 | 64 | 1011.3 | |
| 20260504222517 | 50 | 113 | 1.0 | 4.0 | 0.01 | 0.01 | 0.01 | 57 | 1011.6 |
| 20260504222018 | 51 | 23 | 2.0 | 10.0 | 0.01 | 0.01 | 0.01 | 48 | 1012.1 |
| 20260504221516 | 53 | 135 | 5.0 | 10.0 | 0.00 | 0.00 | 0.00 | 41 | 1012.3 |
| 20260504221016 | 54 | 113 | 1.0 | 5.0 | 0.00 | 0.00 | 0.00 | 41 | 1012.3 |
| 20260504220516 | 54 | 135 | 2.0 | 4.0 | 0.00 | 0.00 | 0.00 | 40 | 1012.1 |
| 20260504220016 | 54 | 113 | 2.0 | 6.0 | 0.00 | 0.00 | 0.00 | 40 | 1012.0 |
| 20260504215516 | 55 | 90 | 3.0 | 8.0 | 0.00 | 0.00 | 0.00 | 39 | 1012.6 |
| 20260504215016 | 55 | 135 | 2.0 | 7.0 | 0.00 | 0.00 | 0.00 | 37 | 1012.4 |
| 20260504214516 | 56 | 113 | 1.0 | 5.0 | 0.00 | 0.00 | 0.00 | 36 | 1012.4 |
| 20260504214017 | 56 | 90 | 1.0 | 4.0 | 0.00 | 0.00 | 0.00 | 35 | 1013.0 |
| 20260504213516 | 56 | 135 | 3.0 | 7.0 | 0.00 | 0.00 | 0.00 | 36 | 1013.1 |
| 20260504213017 | 56 | 90 | 1.0 | 4.0 | 0.00 | 0.00 | 0.00 | 37 | 1013.2 |
| 20260504212517 | 55 | 135 | 2.0 | 5.0 | 0.00 | 0.00 | 0.00 | 39 | 1011.6 |
| 20260504212016 | 55 | 135 | 2.0 | 5.0 | 0.00 | 0.00 | 0.00 | 41 | 1011.7 |
| 20260504211516 | 55 | 135 | 2.0 | 6.0 | 0.00 | 0.00 | 0.00 | 40 | 1011.1 |
| 20260504211017 | 55 | 135 | 4.0 | 7.0 | 0.00 | 0.00 | 0.00 | 40 | 1011.7 |
| 20260504210517 | 55 | 135 | 3.0 | 7.0 | 0.00 | 0.00 | 0.00 | 40 | 1011.2 |
| 20260504210016 | 55 | 135 | 2.0 | 5.0 | 0.00 | 0.00 | 0.00 | 42 | 1011.8 |
| 20260504205517 | 55 | 135 | 4.0 | 8.0 | 0.00 | 0.00 | 0.00 | 42 | 1011.5 |
| 20260504205016 | 55 | 135 | 3.0 | 6.0 | 0.00 | 0.00 | 0.00 | 42 | 1011.4 |
| 20260504204516 | 55 | 135 | 3.0 | 6.0 | 0.00 | 0.00 | 0.00 | 42 | 1011.3 |
| 20260504204016 | 55 | 135 | 3.0 | 9.0 | 0.00 | 0.00 | 0.00 | 42 | 1011.5 |
| 20260504203516 | 55 | 135 | 3.0 | 7.0 | 0.00 | 0.00 | 0.00 | 42 | 1011.6 |
| 20260504203016 | 56 | 90 | 3.0 | 9.0 | 0.00 | 0.00 | 0.00 | 42 | 1011.7 |
| 20260504202516 | 55 | 315 | 1.0 | 8.0 | 0.00 | 0.00 | 0.00 | 46 | 1011.9 |
| 20260504202017 | 55 | 113 | 3.0 | 7.0 | 0.00 | 0.00 | 0.00 | 44 | 1011.9 |
| 20260504201517 | 56 | 90 | 4.0 | 11.0 | 0.00 | 0.00 | 0.00 | 42 | 1012.0 |
| 20260504201016 | 56 | 315 | 1.0 | 5.0 | 0.00 | 0.00 | 0.00 | 44 | 1012.1 |
| 20260504200516 | 55 | 315 | 2.0 | 8.0 | 0.00 | 0.00 | 0.00 | 43 | 1011.9 |
| 20260504200017 | 55 | 315 | 2.0 | 7.0 | 0.00 | 0.00 | 0.00 | 47 | 1012.0 |
| 20260504195516 | 54 | 45 | 2.0 | 7.0 | 0.00 | 0.00 | 0.00 | 45 | 1012.2 |
| 20260504195016 | 54 | 315 | 2.0 | 6.0 | 0.00 | 0.00 | 0.00 | 44 | 1012.1 |
| 20260504194516 | 53 | 23 | 2.0 | 5.0 | 0.00 | 0.00 | 0.00 | 44 | 1012.2 |
| 20260504194016 | 53 | 315 | 3.0 | 7.0 | 0.00 | 0.00 | 0.00 | 43 | 1012.3 |
| 20260504193516 | 54 | 45 | 1.0 | 7.0 | 0.00 | 0.00 | 0.00 | 40 | 1012.1 |
| 20260504193016 | 54 | 0.0 | 2.0 | 0.00 | 0.00 | 0.00 | 41 | 1012.0 | |
| 20260504192516 | 54 | 0.0 | 1.0 | 0.00 | 0.00 | 0.00 | 42 | 1012.1 | |
| 20260504192016 | 54 | 113 | 1.0 | 5.0 | 0.00 | 0.00 | 0.00 | 42 | 1012.0 |
| 20260504191517 | 54 | 90 | 3.0 | 7.0 | 0.00 | 0.00 | 0.00 | 42 | 1011.9 |
| 20260504191016 | 54 | 113 | 2.0 | 6.0 | 0.00 | 0.00 | 0.00 | 42 | 1011.9 |
| 20260504190517 | 54 | 0.0 | 2.0 | 0.00 | 0.00 | 0.00 | 42 | 1011.9 | |
| 20260504190016 | 53 | 113 | 1.0 | 3.0 | 0.00 | 0.00 | 0.00 | 42 | 1011.8 |
| 20260504185517 | 53 | 135 | 2.0 | 5.0 | 0.00 | 0.00 | 0.00 | 40 | 1012.4 |
| 20260504185016 | 53 | 90 | 3.0 | 7.0 | 0.00 | 0.00 | 0.00 | 38 | 1012.4 |
| 20260504184517 | 54 | 90 | 2.0 | 6.0 | 0.00 | 0.00 | 0.00 | 39 | 1012.5 |
| 20260504184016 | 55 | 135 | 2.0 | 7.0 | 0.00 | 0.00 | 0.00 | 38 | 1012.9 |
| 20260504183516 | 56 | 0.0 | 3.0 | 0.00 | 0.00 | 0.00 | 39 | 1012.9 | |
| 20260504183016 | 55 | 135 | 2.0 | 7.0 | 0.00 | 0.00 | 0.00 | 41 | 1013.1 |
| 20260504182516 | 54 | 315 | 3.0 | 7.0 | 0.00 | 0.00 | 0.00 | 43 | 1012.5 |
| 20260504182016 | 54 | 0.0 | 4.0 | 0.00 | 0.00 | 0.00 | 43 | 1012.6 | |
| 20260504181516 | 55 | 0.0 | 2.0 | 0.00 | 0.00 | 0.00 | 44 | 1013.2 | |
| 20260504181016 | 56 | 0.0 | 1.0 | 0.00 | 0.00 | 0.00 | 44 | 1013.2 | |
| 20260504180516 | 56 | 0.0 | 2.0 | 0.00 | 0.00 | 0.00 | 36 | 1013.0 | |
| 20260504180016 | 57 | 158 | 1.0 | 3.0 | 0.00 | 0.00 | 0.00 | 32 | 1013.0 |
| 20260504175516 | 57 | 0.0 | 2.0 | 0.00 | 0.00 | 0.00 | 29 | 1014.0 | |
| 20260504175016 | 58 | 0.0 | 2.0 | 0.00 | 0.00 | 0.00 | 27 | 1013.9 | |
| 20260504174516 | 58 | 0.0 | 1.0 | 0.00 | 0.00 | 0.00 | 28 | 1014.0 | |
| 20260504174016 | 60 | 0.0 | 3.0 | 0.00 | 0.00 | 0.00 | 25 | 1014.5 | |
| 20260504173516 | 61 | 0.0 | 2.0 | 0.00 | 0.00 | 0.00 | 27 | 1014.7 | |
| 20260504173016 | 60 | 0.0 | 2.0 | 0.00 | 0.00 | 0.00 | 27 | 1014.7 | |
| 20260504172516 | 61 | 0.0 | 2.0 | 0.00 | 0.00 | 0.00 | 28 | 1014.9 | |
| 20260504172016 | 61 | 338 | 1.0 | 5.0 | 0.00 | 0.00 | 0.00 | 26 | 1014.7 |
| 20260504171516 | 62 | 23 | 2.0 | 5.0 | 0.00 | 0.00 | 0.00 | 28 | 1015.5 |
| 20260504171016 | 62 | 158 | 2.0 | 7.0 | 0.00 | 0.00 | 0.00 | 29 | 1015.6 |
| 20260504170516 | 61 | 248 | 1.0 | 5.0 | 0.00 | 0.00 | 0.00 | 28 | 1015.1 |
| 20260504151016 | 52 | 135 | 2.0 | 6.0 | 0.00 | 0.00 | 0.00 | 36 | 1015.0 |
| 20260504150516 | 52 | 158 | 1.0 | 7.0 | 0.00 | 0.00 | 0.00 | 37 | 1015.1 |
| 20260504141016 | 51 | 0.0 | 0.0 | 0.00 | 0.00 | 0.00 | 37 | 1016.3 | |
| 20260504140516 | 50 | 0.0 | 0.0 | 0.00 | 0.00 | 0.00 | 39 | 1016.4 | |
| 20260504130516 | 48 | 0.0 | 0.0 | 0.00 | 0.00 | 0.00 | 34 | 1016.3 | |
| 20260504110515 | 46 | 0.0 | 1.0 | 0.00 | 0.00 | 0.00 | 35 | 1016.9 | |
| 20260504100516 | 45 | 0.0 | 1.0 | 0.00 | 0.00 | 0.00 | 35 | 1017.0 | |
| 20260504081518 | 39 | 0.0 | 0.0 | 0.00 | 0.00 | 0.00 | 44 | 1017.9 | |
| 20260504081017 | 39 | 0.0 | 0.0 | 0.00 | 0.00 | 0.00 | 44 | 1017.8 | |
| 20260504080517 | 39 | 0.0 | 0.0 | 0.00 | 0.00 | 0.00 | 44 | 1017.9 | |
| 20260504050517 | 44 | 0.0 | 1.0 | 0.00 | 0.00 | 0.00 | 43 | 1017.3 | |
| 20260504050017 | 44 | 0.0 | 0.0 | 0.00 | 0.00 | 0.00 | 45 | 1017.4 | |
| 20260504045517 | 44 | 0.0 | 0.0 | 0.00 | 0.00 | 0.00 | 45 | 1017.4 | |
| 20260504045017 | 44 | 0.0 | 0.0 | 0.00 | 0.00 | 0.00 | 44 | 1017.5 | |
| 20260504044517 | 44 | 0.0 | 0.0 | 0.00 | 0.00 | 0.00 | 46 | 1017.5 | |
| 20260504044017 | 44 | 0.0 | 0.0 | 0.00 | 0.00 | 0.00 | 45 | 1017.5 | |
| 20260504043517 | 44 | 0.0 | 0.0 | 0.00 | 0.00 | 0.00 | 46 | 1017.7 | |
| 20260504043017 | 44 | 0.0 | 0.0 | 0.00 | 0.00 | 0.00 | 46 | 1017.7 | |
| 20260504042517 | 44 | 0.0 | 0.0 | 0.00 | 0.00 | 0.00 | 47 | 1017.2 | |
| 20260504042017 | 44 | 0.0 | 0.0 | 0.00 | 0.00 | 0.00 | 47 | 1017.2 | |
| 20260504041517 | 44 | 0.0 | 0.0 | 0.00 | 0.00 | 0.00 | 47 | 1017.3 | |
| 20260504041017 | 44 | 0.0 | 0.0 | 0.00 | 0.00 | 0.00 | 48 | 1017.3 | |
| 20260504040517 | 44 | 0.0 | 0.0 | 0.00 | 0.00 | 0.00 | 48 | 1017.4 | |
| 20260504040017 | 44 | 0.0 | 1.0 | 0.00 | 0.00 | 0.00 | 49 | 1017.5 | |
| 20260504035517 | 45 | 0.0 | 0.0 | 0.00 | 0.00 | 0.00 | 48 | 1017.5 | |
| 20260504035017 | 45 | 0.0 | 1.0 | 0.00 | 0.00 | 0.00 | 48 | 1017.5 | |
| 20260504034517 | 45 | 0.0 | 0.0 | 0.00 | 0.00 | 0.00 | 48 | 1017.5 | |
| 20260504034018 | 45 | 0.0 | 1.0 | 0.00 | 0.00 | 0.00 | 48 | 1017.5 | |
| 20260504033517 | 45 | 0.0 | 0.0 | 0.00 | 0.00 | 0.00 | 47 | 1017.5 | |
| 20260504033017 | 46 | 0.0 | 0.0 | 0.00 | 0.00 | 0.00 | 47 | 1018.1 | |
| 20260504032517 | 46 | 0.0 | 0.0 | 0.00 | 0.00 | 0.00 | 46 | 1017.5 | |
| 20260504032017 | 46 | 0.0 | 0.0 | 0.00 | 0.00 | 0.00 | 45 | 1017.4 | |
| 20260504031517 | 46 | 0.0 | 0.0 | 0.00 | 0.00 | 0.00 | 45 | 1017.5 | |
| 20260504031017 | 46 | 0.0 | 0.0 | 0.00 | 0.00 | 0.00 | 46 | 1017.4 | |
| 20260504030517 | 47 | 0.0 | 0.0 | 0.00 | 0.00 | 0.00 | 45 | 1017.5 | |
| 20260504030017 | 47 | 0.0 | 0.0 | 0.00 | 0.00 | 0.00 | 45 | 1017.5 | |
| 20260504025517 | 47 | 0.0 | 0.0 | 0.00 | 0.00 | 0.00 | 44 | 1017.4 | |
| 20260504025017 | 48 | 0.0 | 1.0 | 0.00 | 0.00 | 0.00 | 43 | 1017.5 | |
| 20260504024517 | 48 | 0.0 | 0.0 | 0.00 | 0.00 | 0.00 | 43 | 1017.3 | |
| 20260504024017 | 48 | 0.0 | 0.0 | 0.00 | 0.00 | 0.00 | 41 | 1017.4 | |
| 20260504023517 | 49 | 0.0 | 0.0 | 0.00 | 0.00 | 0.00 | 44 | 1018.0 |